sensor_id;sensor_type;location;lat;lon;timestamp;pressure;altitude;pressure_sealevel;temperature;humidity
42067;BME280;27734;47.028;28.820;2023-02-19T00:01:47;99715.32;;;7.14;55.46
42067;BME280;27734;47.028;28.820;2023-02-19T00:04:20;99711.58;;;7.07;56.93
42067;BME280;27734;47.028;28.820;2023-02-19T00:06:52;99709.47;;;6.97;57.92
42067;BME280;27734;47.028;28.820;2023-02-19T00:09:24;99719.56;;;6.88;57.25
42067;BME280;27734;47.028;28.820;2023-02-19T00:11:55;99730.69;;;6.83;56.99
42067;BME280;27734;47.028;28.820;2023-02-19T00:14:27;99745.41;;;6.81;57.07
42067;BME280;27734;47.028;28.820;2023-02-19T00:16:58;99746.10;;;6.77;57.31
42067;BME280;27734;47.028;28.820;2023-02-19T00:19:29;99753.69;;;6.71;58.32
42067;BME280;27734;47.028;28.820;2023-02-19T00:22:00;99751.87;;;6.69;57.79
42067;BME280;27734;47.028;28.820;2023-02-19T00:24:31;99753.69;;;6.71;57.65
42067;BME280;27734;47.028;28.820;2023-02-19T00:27:03;99745.28;;;6.78;57.81
42067;BME280;27734;47.028;28.820;2023-02-19T00:29:34;99750.67;;;6.83;57.96
42067;BME280;27734;47.028;28.820;2023-02-19T00:32:05;99750.85;;;6.88;57.95
42067;BME280;27734;47.028;28.820;2023-02-19T00:34:38;99751.80;;;6.90;58.24
42067;BME280;27734;47.028;28.820;2023-02-19T00:37:09;99754.58;;;6.94;57.96
42067;BME280;27734;47.028;28.820;2023-02-19T00:39:40;99752.03;;;6.96;58.16
42067;BME280;27734;47.028;28.820;2023-02-19T00:42:11;99746.81;;;6.96;58.46
42067;BME280;27734;47.028;28.820;2023-02-19T00:44:43;99743.33;;;6.95;58.66
42067;BME280;27734;47.028;28.820;2023-02-19T00:47:15;99739.80;;;6.95;58.61
42067;BME280;27734;47.028;28.820;2023-02-19T00:49:46;99740.72;;;6.95;58.56
42067;BME280;27734;47.028;28.820;2023-02-19T00:52:17;99746.81;;;6.96;58.96
42067;BME280;27734;47.028;28.820;2023-02-19T00:54:48;99743.38;;;6.97;59.17
42067;BME280;27734;47.028;28.820;2023-02-19T00:57:20;99739.10;;;6.99;58.92
42067;BME280;27734;47.028;28.820;2023-02-19T00:59:51;99734.59;;;6.95;60.27
42067;BME280;27734;47.028;28.820;2023-02-19T01:02:23;99745.52;;;6.84;60.06
42067;BME280;27734;47.028;28.820;2023-02-19T01:04:55;99743.61;;;6.80;59.39
42067;BME280;27734;47.028;28.820;2023-02-19T01:07:26;99740.89;;;6.77;60.01
42067;BME280;27734;47.028;28.820;2023-02-19T01:09:58;99730.28;;;6.73;59.80
42067;BME280;27734;47.028;28.820;2023-02-19T01:12:29;99721.58;;;6.72;60.13
42067;BME280;27734;47.028;28.820;2023-02-19T01:15:00;99724.25;;;6.74;59.93
42067;BME280;27734;47.028;28.820;2023-02-19T01:17:31;99726.67;;;6.69;60.59
42067;BME280;27734;47.028;28.820;2023-02-19T01:20:06;99725.62;;;6.64;60.55
42067;BME280;27734;47.028;28.820;2023-02-19T01:22:37;99719.55;;;6.65;60.63
42067;BME280;27734;47.028;28.820;2023-02-19T01:25:09;99722.22;;;6.66;61.34
42067;BME280;27734;47.028;28.820;2023-02-19T01:27:40;99722.28;;;6.68;60.78
42067;BME280;27734;47.028;28.820;2023-02-19T01:30:12;99717.13;;;6.70;60.96
42067;BME280;27734;47.028;28.820;2023-02-19T01:32:43;99716.30;;;6.71;61.15
42067;BME280;27734;47.028;28.820;2023-02-19T01:35:15;99721.52;;;6.71;61.23
42067;BME280;27734;47.028;28.820;2023-02-19T01:37:46;99718.97;;;6.72;61.17
42067;BME280;27734;47.028;28.820;2023-02-19T01:40:18;99718.91;;;6.71;61.51
42067;BME280;27734;47.028;28.820;2023-02-19T01:42:51;99722.39;;;6.71;61.45
42067;BME280;27734;47.028;28.820;2023-02-19T01:45:26;99716.42;;;6.74;61.90
42067;BME280;27734;47.028;28.820;2023-02-19T01:48:08;99715.61;;;6.75;61.58
42067;BME280;27734;47.028;28.820;2023-02-19T01:50:45;99709.48;;;6.74;61.95
42067;BME280;27734;47.028;28.820;2023-02-19T01:53:20;99712.14;;;6.76;62.28
42067;BME280;27734;47.028;28.820;2023-02-19T01:55:53;99704.27;;;6.74;62.02
42067;BME280;27734;47.028;28.820;2023-02-19T01:58:27;99702.56;;;6.75;62.45
42067;BME280;27734;47.028;28.820;2023-02-19T02:01:01;99703.45;;;6.75;62.23
42067;BME280;27734;47.028;28.820;2023-02-19T02:03:34;99700.84;;;6.75;62.51
42067;BME280;27734;47.028;28.820;2023-02-19T02:06:07;99700.72;;;6.72;64.22
42067;BME280;27734;47.028;28.820;2023-02-19T02:08:39;99695.39;;;6.69;63.00
42067;BME280;27734;47.028;28.820;2023-02-19T02:11:28;99693.59;;;6.68;63.14
42067;BME280;27734;47.028;28.820;2023-02-19T02:14:01;99690.99;;;6.68;63.06
42067;BME280;27734;47.028;28.820;2023-02-19T02:16:39;99694.51;;;6.69;63.24
42067;BME280;27734;47.028;28.820;2023-02-19T02:19:27;99696.20;;;6.68;63.61
42067;BME280;27734;47.028;28.820;2023-02-19T02:22:06;99690.00;;;6.64;63.50
42067;BME280;27734;47.028;28.820;2023-02-19T02:28:08;99690.70;;;6.60;63.65
42067;BME280;27734;47.028;28.820;2023-02-19T02:30:44;99693.30;;;6.60;63.99
42067;BME280;27734;47.028;28.820;2023-02-19T02:33:23;99695.03;;;6.60;63.86
42067;BME280;27734;47.028;28.820;2023-02-19T02:36:00;99692.48;;;6.61;63.86
42067;BME280;27734;47.028;28.820;2023-02-19T02:38:38;99696.87;;;6.62;64.33
42067;BME280;27734;47.028;28.820;2023-02-19T02:41:11;99697.64;;;6.60;64.21
42067;BME280;27734;47.028;28.820;2023-02-19T02:43:43;99711.31;;;6.54;64.62
42067;BME280;27734;47.028;28.820;2023-02-19T02:46:19;99709.19;;;6.44;64.56
42067;BME280;27734;47.028;28.820;2023-02-19T02:48:55;99715.67;;;6.33;64.63
42067;BME280;27734;47.028;28.820;2023-02-19T02:51:32;99718.63;;;6.19;64.66
42067;BME280;27734;47.028;28.820;2023-02-19T02:54:12;99737.04;;;6.03;66.41
42067;BME280;27734;47.028;28.820;2023-02-19T02:57:07;99747.63;;;5.86;67.11
42067;BME280;27734;47.028;28.820;2023-02-19T02:59:47;99759.10;;;5.70;67.81
42067;BME280;27734;47.028;28.820;2023-02-19T03:02:22;99761.17;;;5.58;67.27
42067;BME280;27734;47.028;28.820;2023-02-19T03:04:59;99773.84;;;5.50;66.54
42067;BME280;27734;47.028;28.820;2023-02-19T03:07:55;99770.90;;;5.43;66.49
42067;BME280;27734;47.028;28.820;2023-02-19T03:10:32;99789.86;;;5.40;66.78
42067;BME280;27734;47.028;28.820;2023-02-19T03:13:07;99822.73;;;5.38;68.74
42067;BME280;27734;47.028;28.820;2023-02-19T03:16:04;99828.25;;;5.26;68.32
42067;BME280;27734;47.028;28.820;2023-02-19T03:18:55;99835.77;;;5.20;69.58
42067;BME280;27734;47.028;28.820;2023-02-19T03:21:48;99843.28;;;5.14;69.46
42067;BME280;27734;47.028;28.820;2023-02-19T03:24:24;99843.14;;;5.11;69.96
42067;BME280;27734;47.028;28.820;2023-02-19T03:27:15;99838.70;;;5.08;69.11
42067;BME280;27734;47.028;28.820;2023-02-19T03:29:52;99830.83;;;5.07;69.89
42067;BME280;27734;47.028;28.820;2023-02-19T03:32:24;99838.63;;;5.07;69.52
42067;BME280;27734;47.028;28.820;2023-02-19T03:35:02;99839.58;;;5.09;70.78
42067;BME280;27734;47.028;28.820;2023-02-19T03:37:40;99846.50;;;5.08;71.17
42067;BME280;27734;47.028;28.820;2023-02-19T03:40:13;99842.11;;;5.07;70.41
42067;BME280;27734;47.028;28.820;2023-02-19T03:42:53;99834.53;;;5.12;72.31
42067;BME280;27734;47.028;28.820;2023-02-19T03:45:35;99836.25;;;5.11;72.07
42067;BME280;27734;47.028;28.820;2023-02-19T03:48:21;99844.12;;;5.13;73.12
42067;BME280;27734;47.028;28.820;2023-02-19T03:51:01;99845.95;;;5.15;72.25
42067;BME280;27734;47.028;28.820;2023-02-19T03:53:41;99854.74;;;5.17;74.07
42067;BME280;27734;47.028;28.820;2023-02-19T03:56:21;99844.48;;;5.20;74.18
42067;BME280;27734;47.028;28.820;2023-02-19T03:58:59;99841.81;;;5.19;72.93
42067;BME280;27734;47.028;28.820;2023-02-19T04:01:38;99847.02;;;5.19;73.00
42067;BME280;27734;47.028;28.820;2023-02-19T04:04:17;99849.47;;;5.16;72.76
42067;BME280;27734;47.028;28.820;2023-02-19T04:06:54;99856.43;;;5.17;73.24
42067;BME280;27734;47.028;28.820;2023-02-19T04:09:29;99853.69;;;5.14;73.69
42067;BME280;27734;47.028;28.820;2023-02-19T04:12:07;99857.05;;;5.11;74.63
42067;BME280;27734;47.028;28.820;2023-02-19T04:14:43;99856.98;;;5.10;75.47
42067;BME280;27734;47.028;28.820;2023-02-19T04:17:22;99852.73;;;5.12;74.45
42067;BME280;27734;47.028;28.820;2023-02-19T04:19:55;99852.73;;;5.12;74.87
42067;BME280;27734;47.028;28.820;2023-02-19T04:22:29;99854.31;;;5.08;74.49
42067;BME280;27734;47.028;28.820;2023-02-19T04:25:01;99846.44;;;5.07;74.32
42067;BME280;27734;47.028;28.820;2023-02-19T04:27:32;99855.19;;;5.09;75.47
42067;BME280;27734;47.028;28.820;2023-02-19T04:30:09;99855.85;;;5.04;75.21
42067;BME280;27734;47.028;28.820;2023-02-19T04:32:41;99872.08;;;4.99;74.77
42067;BME280;27734;47.028;28.820;2023-02-19T04:35:12;99889.14;;;4.94;74.78
42067;BME280;27734;47.028;28.820;2023-02-19T04:37:43;99902.91;;;4.91;75.47
42067;BME280;27734;47.028;28.820;2023-02-19T04:40:15;99898.44;;;4.89;75.56
42067;BME280;27734;47.028;28.820;2023-02-19T04:42:46;99891.44;;;4.88;75.99
42067;BME280;27734;47.028;28.820;2023-02-19T04:45:17;99912.39;;;4.91;76.97
42067;BME280;27734;47.028;28.820;2023-02-19T04:47:48;99918.66;;;4.94;76.83
42067;BME280;27734;47.028;28.820;2023-02-19T04:50:20;99929.20;;;4.97;76.49
42067;BME280;27734;47.028;28.820;2023-02-19T04:52:51;99929.42;;;5.02;77.05
42067;BME280;27734;47.028;28.820;2023-02-19T04:55:23;99934.85;;;5.07;78.00
42067;BME280;27734;47.028;28.820;2023-02-19T04:57:54;99945.55;;;5.13;78.20
42067;BME280;27734;47.028;28.820;2023-02-19T05:00:26;99944.86;;;5.17;77.32
42067;BME280;27734;47.028;28.820;2023-02-19T05:02:58;99939.88;;;5.21;77.38
42067;BME280;27734;47.028;28.820;2023-02-19T05:05:29;99946.15;;;5.25;78.05
42067;BME280;27734;47.028;28.820;2023-02-19T05:08:01;99943.66;;;5.28;77.24
42067;BME280;27734;47.028;28.820;2023-02-19T05:10:32;99943.88;;;5.33;77.99
42067;BME280;27734;47.028;28.820;2023-02-19T05:13:03;99943.30;;;5.38;77.65
42067;BME280;27734;47.028;28.820;2023-02-19T05:15:35;99957.55;;;5.47;78.91
42067;BME280;27734;47.028;28.820;2023-02-19T05:18:06;99962.17;;;5.52;79.12
42067;BME280;27734;47.028;28.820;2023-02-19T05:20:38;99948.48;;;5.56;78.56
42067;BME280;27734;47.028;28.820;2023-02-19T05:23:09;99946.03;;;5.60;78.57
42067;BME280;27734;47.028;28.820;2023-02-19T05:25:41;99966.16;;;5.64;79.24
42067;BME280;27734;47.028;28.820;2023-02-19T05:28:12;99976.71;;;5.67;79.96
42067;BME280;27734;47.028;28.820;2023-02-19T05:30:50;99972.42;;;5.67;78.98
42067;BME280;27734;47.028;28.820;2023-02-19T05:33:24;99963.70;;;5.67;79.26
42067;BME280;27734;47.028;28.820;2023-02-19T05:35:56;99984.59;;;5.68;79.11
42067;BME280;27734;47.028;28.820;2023-02-19T05:38:27;99985.50;;;5.69;79.57
42067;BME280;27734;47.028;28.820;2023-02-19T05:41:07;99986.46;;;5.71;78.91
42067;BME280;27734;47.028;28.820;2023-02-19T05:43:39;99997.02;;;5.74;78.07
42067;BME280;27734;47.028;28.820;2023-02-19T05:46:12;99993.78;;;5.80;78.62
42067;BME280;27734;47.028;28.820;2023-02-19T05:48:44;100003.68;;;5.87;78.64
42067;BME280;27734;47.028;28.820;2023-02-19T05:51:18;100011.78;;;5.93;78.84
42067;BME280;27734;47.028;28.820;2023-02-19T05:53:49;100017.45;;;6.02;78.53
42067;BME280;27734;47.028;28.820;2023-02-19T05:56:31;100023.02;;;6.10;78.69
42067;BME280;27734;47.028;28.820;2023-02-19T05:59:05;100034.67;;;6.18;78.74
42067;BME280;27734;47.028;28.820;2023-02-19T06:01:37;100045.38;;;6.24;80.02
42067;BME280;27734;47.028;28.820;2023-02-19T06:04:09;100033.39;;;6.28;79.83
42067;BME280;27734;47.028;28.820;2023-02-19T06:06:41;100029.14;;;6.30;79.90
42067;BME280;27734;47.028;28.820;2023-02-19T06:09:13;100018.00;;;6.34;80.35
42067;BME280;27734;47.028;28.820;2023-02-19T06:11:44;100026.95;;;6.39;79.37
42067;BME280;27734;47.028;28.820;2023-02-19T06:14:15;100033.45;;;6.49;80.17
42067;BME280;27734;47.028;28.820;2023-02-19T06:16:46;100041.55;;;6.55;80.69
42067;BME280;27734;47.028;28.820;2023-02-19T06:19:18;100052.17;;;6.60;80.56
42067;BME280;27734;47.028;28.820;2023-02-19T06:21:51;100060.87;;;6.60;80.19
42067;BME280;27734;47.028;28.820;2023-02-19T06:24:22;100064.47;;;6.62;80.91
42067;BME280;27734;47.028;28.820;2023-02-19T06:26:54;100066.30;;;6.65;81.16
42067;BME280;27734;47.028;28.820;2023-02-19T06:29:25;100068.30;;;6.71;81.01
42067;BME280;27734;47.028;28.820;2023-02-19T06:31:56;100073.65;;;6.74;81.25
42067;BME280;27734;47.028;28.820;2023-02-19T06:34:27;100074.53;;;6.74;81.43
42067;BME280;27734;47.028;28.820;2023-02-19T06:36:59;100084.14;;;6.75;80.21
42067;BME280;27734;47.028;28.820;2023-02-19T06:39:30;100104.20;;;6.76;80.58
42067;BME280;27734;47.028;28.820;2023-02-19T06:42:02;100100.06;;;6.81;80.98
42067;BME280;27734;47.028;28.820;2023-02-19T06:44:33;100103.69;;;6.85;80.18
42067;BME280;27734;47.028;28.820;2023-02-19T06:47:05;100105.63;;;6.89;80.30
42067;BME280;27734;47.028;28.820;2023-02-19T06:49:36;100113.86;;;6.98;80.47
42067;BME280;27734;47.028;28.820;2023-02-19T06:52:08;100112.53;;;7.08;81.12
42067;BME280;27734;47.028;28.820;2023-02-19T06:54:40;100103.11;;;7.12;80.68
42067;BME280;27734;47.028;28.820;2023-02-19T06:57:11;100100.56;;;7.13;80.76
42067;BME280;27734;47.028;28.820;2023-02-19T06:59:42;100100.50;;;7.12;80.97
42067;BME280;27734;47.028;28.820;2023-02-19T07:02:13;100095.21;;;7.10;80.80
42067;BME280;27734;47.028;28.820;2023-02-19T07:04:44;100094.47;;;7.13;81.05
42067;BME280;27734;47.028;28.820;2023-02-19T07:07:16;100077.15;;;7.15;80.68
42067;BME280;27734;47.028;28.820;2023-02-19T07:09:47;100062.80;;;7.25;81.03
42067;BME280;27734;47.028;28.820;2023-02-19T07:12:18;100063.24;;;7.35;80.78
42067;BME280;27734;47.028;28.820;2023-02-19T07:14:49;100046.23;;;7.45;81.34
42067;BME280;27734;47.028;28.820;2023-02-19T07:17:21;100053.53;;;7.54;80.70
42067;BME280;27734;47.028;28.820;2023-02-19T07:19:52;100053.84;;;7.62;80.96
42067;BME280;27734;47.028;28.820;2023-02-19T07:22:23;100055.13;;;7.71;81.33
42067;BME280;27734;47.028;28.820;2023-02-19T07:24:54;100045.68;;;7.75;81.88
42067;BME280;27734;47.028;28.820;2023-02-19T07:27:25;100054.70;;;7.83;81.94
42067;BME280;27734;47.028;28.820;2023-02-19T07:29:57;100057.50;;;7.88;81.27
42067;BME280;27734;47.028;28.820;2023-02-19T07:32:29;100052.39;;;7.91;81.28
42067;BME280;27734;47.028;28.820;2023-02-19T07:35:00;100059.47;;;7.94;80.88
42067;BME280;27734;47.028;28.820;2023-02-19T07:37:31;100051.75;;;7.97;81.58
42067;BME280;27734;47.028;28.820;2023-02-19T07:40:04;100051.88;;;8.00;81.24
42067;BME280;27734;47.028;28.820;2023-02-19T07:42:36;100046.70;;;8.01;81.12
42067;BME280;27734;47.028;28.820;2023-02-19T07:45:09;100055.55;;;8.05;81.53
42067;BME280;27734;47.028;28.820;2023-02-19T07:47:40;100057.45;;;8.09;80.78
42067;BME280;27734;47.028;28.820;2023-02-19T07:50:11;100062.69;;;8.09;80.59
42067;BME280;27734;47.028;28.820;2023-02-19T07:52:43;100049.80;;;8.14;80.64
42067;BME280;27734;47.028;28.820;2023-02-19T07:55:14;100055.31;;;8.21;80.54
42067;BME280;27734;47.028;28.820;2023-02-19T07:57:45;100046.67;;;8.24;79.28
42067;BME280;27734;47.028;28.820;2023-02-19T08:00:17;100053.87;;;8.30;79.94
42067;BME280;27734;47.028;28.820;2023-02-19T08:02:48;100053.16;;;8.34;79.21
42067;BME280;27734;47.028;28.820;2023-02-19T08:05:36;100059.50;;;8.40;79.59
42067;BME280;27734;47.028;28.820;2023-02-19T08:08:08;100065.67;;;8.42;78.62
42067;BME280;27734;47.028;28.820;2023-02-19T08:10:41;100071.22;;;8.50;78.76
42067;BME280;27734;47.028;28.820;2023-02-19T08:13:30;100074.01;;;8.55;77.85
42067;BME280;27734;47.028;28.820;2023-02-19T08:16:12;100074.29;;;8.62;77.57
42067;BME280;27734;47.028;28.820;2023-02-19T08:18:47;100073.58;;;8.67;77.10
42067;BME280;27734;47.028;28.820;2023-02-19T08:21:18;100093.70;;;8.69;75.78
42067;BME280;27734;47.028;28.820;2023-02-19T08:23:49;100099.10;;;8.74;75.39
42067;BME280;27734;47.028;28.820;2023-02-19T08:26:21;100092.23;;;8.76;74.04
42067;BME280;27734;47.028;28.820;2023-02-19T08:28:52;100105.53;;;8.82;72.88
42067;BME280;27734;47.028;28.820;2023-02-19T08:31:23;100104.78;;;8.86;73.45
42067;BME280;27734;47.028;28.820;2023-02-19T08:33:55;100101.45;;;8.90;71.80
42067;BME280;27734;47.028;28.820;2023-02-19T08:36:27;100089.42;;;8.95;71.72
42067;BME280;27734;47.028;28.820;2023-02-19T08:38:58;100100.88;;;8.99;72.20
42067;BME280;27734;47.028;28.820;2023-02-19T08:41:29;100087.90;;;9.02;71.00
42067;BME280;27734;47.028;28.820;2023-02-19T08:44:01;100075.78;;;9.04;69.90
42067;BME280;27734;47.028;28.820;2023-02-19T08:46:32;100074.97;;;9.07;69.72
42067;BME280;27734;47.028;28.820;2023-02-19T08:49:03;100061.99;;;9.10;67.89
42067;BME280;27734;47.028;28.820;2023-02-19T08:51:35;100055.16;;;9.13;69.31
42067;BME280;27734;47.028;28.820;2023-02-19T08:54:06;100057.98;;;9.20;68.83
42067;BME280;27734;47.028;28.820;2023-02-19T08:56:37;100058.09;;;9.23;66.15
42067;BME280;27734;47.028;28.820;2023-02-19T08:59:08;100060.01;;;9.28;67.34
42067;BME280;27734;47.028;28.820;2023-02-19T09:01:40;100054.00;;;9.31;67.08
42067;BME280;27734;47.028;28.820;2023-02-19T09:04:12;100054.77;;;9.28;67.42
42067;BME280;27734;47.028;28.820;2023-02-19T09:06:43;100050.45;;;9.29;66.77
42067;BME280;27734;47.028;28.820;2023-02-19T09:09:14;100054.77;;;9.28;66.50
42067;BME280;27734;47.028;28.820;2023-02-19T09:11:46;100059.23;;;9.31;64.93
42067;BME280;27734;47.028;28.820;2023-02-19T09:14:17;100059.59;;;9.42;67.06
42067;BME280;27734;47.028;28.820;2023-02-19T09:16:48;100050.25;;;9.50;66.88
42067;BME280;27734;47.028;28.820;2023-02-19T09:19:19;100055.80;;;9.59;66.32
42067;BME280;27734;47.028;28.820;2023-02-19T09:21:50;100064.92;;;9.72;65.36
42067;BME280;27734;47.028;28.820;2023-02-19T09:24:22;100052.94;;;9.79;66.18
42067;BME280;27734;47.028;28.820;2023-02-19T09:26:54;100054.06;;;9.87;64.28
42067;BME280;27734;47.028;28.820;2023-02-19T09:29:27;100059.49;;;9.93;64.99
42067;BME280;27734;47.028;28.820;2023-02-19T09:32:00;100042.22;;;10.00;64.92
42067;BME280;27734;47.028;28.820;2023-02-19T09:34:31;100039.92;;;10.11;65.80
42067;BME280;27734;47.028;28.820;2023-02-19T09:37:03;100036.74;;;10.21;65.20
42067;BME280;27734;47.028;28.820;2023-02-19T09:39:35;100062.28;;;10.28;63.71
42067;BME280;27734;47.028;28.820;2023-02-19T09:42:14;100052.70;;;10.29;64.24
42067;BME280;27734;47.028;28.820;2023-02-19T09:44:48;100057.20;;;10.33;64.32
42067;BME280;27734;47.028;28.820;2023-02-19T09:47:22;100037.36;;;10.41;63.66
42067;BME280;27734;47.028;28.820;2023-02-19T09:49:55;100024.47;;;10.49;63.39
42067;BME280;27734;47.028;28.820;2023-02-19T09:52:32;100015.73;;;10.50;62.68
42067;BME280;27734;47.028;28.820;2023-02-19T09:55:14;100027.97;;;10.49;62.13
42067;BME280;27734;47.028;28.820;2023-02-19T09:57:47;100011.49;;;10.55;62.88
42067;BME280;27734;47.028;28.820;2023-02-19T10:00:24;99995.92;;;10.61;62.53
42067;BME280;27734;47.028;28.820;2023-02-19T10:03:02;99996.96;;;10.66;62.01
42067;BME280;27734;47.028;28.820;2023-02-19T10:05:34;99989.25;;;10.72;62.27
42067;BME280;27734;47.028;28.820;2023-02-19T10:08:08;99999.05;;;10.79;62.58
42067;BME280;27734;47.028;28.820;2023-02-19T10:10:44;99991.38;;;10.87;62.73
42067;BME280;27734;47.028;28.820;2023-02-19T10:13:19;99991.58;;;10.95;61.96
42067;BME280;27734;47.028;28.820;2023-02-19T10:15:53;100006.70;;;11.04;62.96
42067;BME280;27734;47.028;28.820;2023-02-19T10:18:27;100008.69;;;11.14;63.40
42067;BME280;27734;47.028;28.820;2023-02-19T10:21:00;100003.59;;;11.20;62.32
42067;BME280;27734;47.028;28.820;2023-02-19T10:23:32;100001.88;;;11.21;62.10
42067;BME280;27734;47.028;28.820;2023-02-19T10:26:04;99995.91;;;11.28;62.37
42067;BME280;27734;47.028;28.820;2023-02-19T10:28:36;99999.41;;;11.27;61.56
42067;BME280;27734;47.028;28.820;2023-02-19T10:31:17;100010.79;;;11.27;62.00
42067;BME280;27734;47.028;28.820;2023-02-19T10:33:53;100006.64;;;11.37;61.97
42067;BME280;27734;47.028;28.820;2023-02-19T10:36:30;100018.21;;;11.44;61.10
42067;BME280;27734;47.028;28.820;2023-02-19T10:39:18;100011.47;;;11.55;61.50
42067;BME280;27734;47.028;28.820;2023-02-19T10:41:55;100014.67;;;11.80;62.07
42067;BME280;27734;47.028;28.820;2023-02-19T10:44:29;100019.54;;;12.01;62.07
42067;BME280;27734;47.028;28.820;2023-02-19T10:47:03;100022.23;;;12.04;61.03
42067;BME280;27734;47.028;28.820;2023-02-19T10:49:36;100013.61;;;12.10;61.40
42067;BME280;27734;47.028;28.820;2023-02-19T10:52:15;100018.02;;;12.11;60.32
42067;BME280;27734;47.028;28.820;2023-02-19T10:54:50;100021.47;;;12.08;60.18
42067;BME280;27734;47.028;28.820;2023-02-19T10:57:30;100017.05;;;12.07;60.30
42067;BME280;27734;47.028;28.820;2023-02-19T11:00:21;100007.50;;;12.11;60.98
42067;BME280;27734;47.028;28.820;2023-02-19T11:03:13;100010.23;;;12.17;60.66
42067;BME280;27734;47.028;28.820;2023-02-19T11:06:03;99995.42;;;12.20;60.74
42067;BME280;27734;47.028;28.820;2023-02-19T11:08:46;100002.51;;;12.25;60.63
42067;BME280;27734;47.028;28.820;2023-02-19T11:11:29;99999.81;;;12.21;60.20
42067;BME280;27734;47.028;28.820;2023-02-19T11:14:04;99999.75;;;12.18;59.49
42067;BME280;27734;47.028;28.820;2023-02-19T11:16:44;99994.42;;;12.15;59.91
42067;BME280;27734;47.028;28.820;2023-02-19T11:19:26;99988.22;;;12.12;60.03
42067;BME280;27734;47.028;28.820;2023-02-19T11:21:58;99987.47;;;12.17;59.96
42067;BME280;27734;47.028;28.820;2023-02-19T11:24:32;99984.91;;;12.20;60.27
42067;BME280;27734;47.028;28.820;2023-02-19T11:27:13;99989.42;;;12.28;59.94
42067;BME280;27734;47.028;28.820;2023-02-19T11:29:47;99973.88;;;12.40;60.18
42067;BME280;27734;47.028;28.820;2023-02-19T11:32:27;99979.30;;;12.48;60.07
42067;BME280;27734;47.028;28.820;2023-02-19T11:35:20;99981.17;;;12.53;60.16
42067;BME280;27734;47.028;28.820;2023-02-19T11:37:58;99973.22;;;12.50;59.99
42067;BME280;27734;47.028;28.820;2023-02-19T11:40:40;99977.61;;;12.50;59.57
42067;BME280;27734;47.028;28.820;2023-02-19T11:43:36;99979.30;;;12.48;59.90
42067;BME280;27734;47.028;28.820;2023-02-19T11:46:18;99978.36;;;12.44;59.58
42067;BME280;27734;47.028;28.820;2023-02-19T11:49:02;99989.64;;;12.38;59.88
42067;BME280;27734;47.028;28.820;2023-02-19T11:51:43;99984.09;;;12.25;59.63
42067;BME280;27734;47.028;28.820;2023-02-19T11:54:34;99987.24;;;12.07;59.36
42067;BME280;27734;47.028;28.820;2023-02-19T11:57:14;99981.69;;;11.93;59.74
42067;BME280;27734;47.028;28.820;2023-02-19T11:59:56;99968.34;;;11.85;60.07
42067;BME280;27734;47.028;28.820;2023-02-19T12:02:53;99972.58;;;11.78;59.84
42067;BME280;27734;47.028;28.820;2023-02-19T12:05:39;99967.11;;;11.69;60.13
42067;BME280;27734;47.028;28.820;2023-02-19T12:08:34;99964.34;;;11.63;60.00
42067;BME280;27734;47.028;28.820;2023-02-19T12:11:26;99952.89;;;11.61;60.01
42067;BME280;27734;47.028;28.820;2023-02-19T12:14:22;99946.89;;;11.66;60.17
42067;BME280;27734;47.028;28.820;2023-02-19T12:17:00;99945.28;;;11.73;60.10
42067;BME280;27734;47.028;28.820;2023-02-19T12:19:48;99954.18;;;11.78;60.33
42067;BME280;27734;47.028;28.820;2023-02-19T12:22:30;99957.69;;;11.79;59.87
42067;BME280;27734;47.028;28.820;2023-02-19T12:25:25;99958.59;;;11.81;60.01
42067;BME280;27734;47.028;28.820;2023-02-19T12:28:26;99954.21;;;11.80;60.21
42067;BME280;27734;47.028;28.820;2023-02-19T12:31:26;99949.73;;;11.76;60.27
42067;BME280;27734;47.028;28.820;2023-02-19T12:34:29;99946.97;;;11.69;60.28
42067;BME280;27734;47.028;28.820;2023-02-19T12:37:16;99952.89;;;11.61;60.14
42067;BME280;27734;47.028;28.820;2023-02-19T12:39:59;99936.95;;;11.51;60.41
42067;BME280;27734;47.028;28.820;2023-02-19T12:42:51;99936.73;;;11.42;60.31
42067;BME280;27734;47.028;28.820;2023-02-19T12:45:30;99932.98;;;11.32;60.35
42067;BME280;27734;47.028;28.820;2023-02-19T12:48:07;99935.46;;;11.26;60.38
42067;BME280;27734;47.028;28.820;2023-02-19T12:50:44;99934.44;;;11.20;60.59
42067;BME280;27734;47.028;28.820;2023-02-19T12:53:27;99927.28;;;11.14;60.76
42067;BME280;27734;47.028;28.820;2023-02-19T12:56:02;99926.26;;;11.07;60.65
42067;BME280;27734;47.028;28.820;2023-02-19T12:58:40;99920.94;;;11.04;60.59
42067;BME280;27734;47.028;28.820;2023-02-19T13:01:17;99917.28;;;10.97;60.52
42067;BME280;27734;47.028;28.820;2023-02-19T13:03:59;99907.58;;;10.95;61.04
42067;BME280;27734;47.028;28.820;2023-02-19T13:06:36;99907.54;;;10.93;60.98
42067;BME280;27734;47.028;28.820;2023-02-19T13:09:14;99905.78;;;10.92;61.04
42067;BME280;27734;47.028;28.820;2023-02-19T13:11:51;99906.55;;;10.88;61.35
42067;BME280;27734;47.028;28.820;2023-02-19T13:14:26;99893.34;;;10.85;61.15
42067;BME280;27734;47.028;28.820;2023-02-19T13:17:02;99895.89;;;10.82;61.12
42067;BME280;27734;47.028;28.820;2023-02-19T13:19:38;99894.91;;;10.77;61.05
42067;BME280;27734;47.028;28.820;2023-02-19T13:22:17;99893.92;;;10.73;61.01
42067;BME280;27734;47.028;28.820;2023-02-19T13:25:09;99891.17;;;10.69;61.14
42067;BME280;27734;47.028;28.820;2023-02-19T13:27:57;99898.97;;;10.66;61.41
42067;BME280;27734;47.028;28.820;2023-02-19T13:30:52;99904.09;;;10.61;61.09
42067;BME280;27734;47.028;28.820;2023-02-19T13:33:36;99901.35;;;10.56;61.77
42067;BME280;27734;47.028;28.820;2023-02-19T13:36:16;99880.99;;;10.46;61.56
42067;BME280;27734;47.028;28.820;2023-02-19T13:38:50;99878.09;;;10.35;62.41
42067;BME280;27734;47.028;28.820;2023-02-19T13:41:27;99878.68;;;10.26;62.44